createdAt,value
2022-08-02T00:00:35.369Z,101150.06
2022-08-02T00:03:03.249Z,101145.75
2022-08-02T00:05:31.079Z,101143.16
2022-08-02T00:07:58.972Z,101144.19
2022-08-02T00:10:28.376Z,101151.44
2022-08-02T00:12:58.409Z,101161.41
2022-08-02T00:15:26.421Z,101160.56
2022-08-02T00:17:54.372Z,101167.81
2022-08-02T00:20:22.295Z,101168.81
2022-08-02T00:22:50.110Z,101165.31
2022-08-02T00:25:17.996Z,101176.09
2022-08-02T00:27:47.140Z,101166.28
2022-08-02T00:30:15.271Z,101161.84
2022-08-02T00:32:43.251Z,101156.56
2022-08-02T00:35:11.168Z,101159.22
2022-08-02T00:37:42.530Z,101155.69
2022-08-02T00:40:12.018Z,101155.78
2022-08-02T00:42:40.298Z,101147.75
2022-08-02T00:45:10.353Z,101159.38
2022-08-02T00:47:38.329Z,101150.53
2022-08-02T00:50:07.172Z,101151.50
2022-08-02T00:52:35.033Z,101166.75
2022-08-02T00:55:02.855Z,101160.56
2022-08-02T00:57:31.751Z,101156.16
2022-08-02T00:59:59.612Z,101158.03
2022-08-02T01:02:29.061Z,101158.09
2022-08-02T01:04:56.932Z,101166.25
2022-08-02T01:07:24.914Z,101164.50
2022-08-02T01:09:53.136Z,101167.25
2022-08-02T01:12:21.074Z,101161.97
2022-08-02T01:14:51.921Z,101170.06
2022-08-02T01:17:31.473Z,101161.22
2022-08-02T01:20:09.716Z,101163.94
2022-08-02T01:23:01.570Z,101160.41
2022-08-02T01:25:54.659Z,101157.78
2022-08-02T01:28:34.505Z,101156.84
2022-08-02T01:31:05.941Z,101163.16
2022-08-02T01:33:40.805Z,101157.75
2022-08-02T01:36:12.960Z,101174.72
2022-08-02T01:38:44.632Z,101163.06
2022-08-02T01:41:17.649Z,101156.81
2022-08-02T01:43:49.152Z,101155.03
2022-08-02T01:46:18.769Z,101156.75
2022-08-02T01:48:49.126Z,101165.63
2022-08-02T01:51:19.667Z,101169.22
2022-08-02T01:53:52.373Z,101171.84
2022-08-02T01:56:22.153Z,101167.34
2022-08-02T01:58:53.439Z,101168.22
2022-08-02T02:01:23.196Z,101173.53
2022-08-02T02:03:51.558Z,101175.28
2022-08-02T02:06:20.277Z,101174.38
2022-08-02T02:08:51.178Z,101168.13
2022-08-02T02:12:06.462Z,101169.00
2022-08-02T02:14:09.274Z,101177.03
2022-08-02T02:16:38.777Z,101166.34
2022-08-02T02:19:08.728Z,101168.22
2022-08-02T02:21:38.105Z,101166.44
2022-08-02T02:24:11.707Z,101174.59
2022-08-02T02:26:48.655Z,101168.38
2022-08-02T02:29:22.955Z,101173.81
2022-08-02T02:31:55.791Z,101172.97
2022-08-02T02:34:28.772Z,101176.63
2022-08-02T02:36:59.207Z,101176.72
2022-08-02T02:39:29.704Z,101175.91
2022-08-02T02:42:03.234Z,101181.38
2022-08-02T02:44:34.306Z,101175.16
2022-08-02T02:47:03.083Z,101178.78
2022-08-02T02:49:34.058Z,101173.47
2022-08-02T02:52:03.943Z,101177.09
2022-08-02T02:54:35.406Z,101182.53
2022-08-02T02:57:06.619Z,101179.00
2022-08-02T02:59:43.073Z,101179.03
2022-08-02T03:02:19.024Z,101179.13
2022-08-02T03:04:56.859Z,101182.81
2022-08-02T03:07:27.283Z,101183.81
2022-08-02T03:09:55.418Z,101189.25
2022-08-02T03:12:30.613Z,101188.44
2022-08-02T03:15:02.153Z,101189.41
2022-08-02T03:17:39.773Z,101194.94
2022-08-02T03:20:13.144Z,101195.25
2022-08-02T03:22:45.437Z,101198.03
2022-08-02T03:25:15.070Z,101199.00
2022-08-02T03:27:43.278Z,101203.50
2022-08-02T03:30:14.209Z,101204.41
2022-08-02T03:32:43.875Z,101208.91
2022-08-02T03:35:18.594Z,101205.38
2022-08-02T03:37:53.239Z,101214.34
2022-08-02T03:40:21.892Z,101217.09
2022-08-02T03:42:50.775Z,101205.53
2022-08-02T03:45:21.087Z,101208.25
2022-08-02T03:47:49.298Z,101200.28
2022-08-02T03:50:18.344Z,101211.88
2022-08-02T03:52:46.987Z,101206.56
2022-08-02T03:55:14.947Z,101205.69
2022-08-02T03:57:43.610Z,101200.38
2022-08-02T04:00:14.093Z,101210.31
2022-08-02T04:02:43.290Z,101202.34
2022-08-02T04:05:12.187Z,101203.25
2022-08-02T04:08:32.681Z,101198.88
2022-08-02T04:10:28.359Z,101206.97
2022-08-02T04:12:56.625Z,101205.19
2022-08-02T04:15:25.128Z,101207.00
2022-08-02T04:17:57.727Z,101206.16
2022-08-02T04:20:30.838Z,101205.34
2022-08-02T04:23:04.340Z,101212.50
2022-08-02T04:25:35.729Z,101200.97
2022-08-02T04:28:17.239Z,101209.00
2022-08-02T04:30:47.629Z,101216.19
2022-08-02T04:33:17.766Z,101210.84
2022-08-02T04:35:46.489Z,101206.34
2022-08-02T04:38:15.908Z,101216.09
2022-08-02T04:40:52.830Z,101217.00
2022-08-02T04:43:21.521Z,101216.94
2022-08-02T04:45:52.541Z,101221.38
2022-08-02T04:48:22.202Z,101221.31
2022-08-02T04:50:50.198Z,101226.59
2022-08-02T04:53:18.437Z,101218.56
2022-08-02T04:55:46.678Z,101216.72
2022-08-02T04:58:38.944Z,101218.38
2022-08-02T05:01:02.396Z,101217.41
2022-08-02T05:03:31.715Z,101221.78
2022-08-02T05:06:00.692Z,101210.13
2022-08-02T05:08:28.803Z,101226.97
2022-08-02T05:10:57.534Z,101226.84
2022-08-02T05:13:26.839Z,101224.09
2022-08-02T05:15:54.683Z,101223.06
2022-08-02T05:18:26.493Z,101222.03
2022-08-02T05:20:58.277Z,101223.66
2022-08-02T05:23:26.473Z,101226.16
2022-08-02T05:25:54.337Z,101226.88
2022-08-02T05:28:22.147Z,101232.09
2022-08-02T05:30:49.992Z,101225.66
2022-08-02T05:33:18.183Z,101230.03
2022-08-02T05:35:46.221Z,101236.13
2022-08-02T05:38:16.682Z,101237.78
2022-08-02T05:40:54.971Z,101235.84
2022-08-02T05:43:24.761Z,101235.75
2022-08-02T05:45:55.256Z,101244.50
2022-08-02T05:48:27.659Z,101241.72
2022-08-02T05:51:04.484Z,101250.56
2022-08-02T05:53:40.011Z,101245.97
2022-08-02T05:56:19.293Z,101245.00
2022-08-02T05:58:54.087Z,101246.75
2022-08-02T06:01:30.075Z,101235.94
2022-08-02T06:04:00.695Z,101243.88
2022-08-02T06:06:30.940Z,101242.03
2022-08-02T06:09:06.839Z,101240.25
2022-08-02T06:11:37.902Z,101250.03
2022-08-02T06:14:07.764Z,101254.44
2022-08-02T06:16:41.950Z,101255.28
2022-08-02T06:19:10.847Z,101253.41
2022-08-02T06:22:35.022Z,101247.03
2022-08-02T06:24:34.060Z,101250.53
2022-08-02T06:27:03.282Z,101254.06
2022-08-02T06:29:38.758Z,101254.97
2022-08-02T06:32:08.989Z,101252.19
2022-08-02T06:34:41.248Z,101262.78
2022-08-02T06:37:20.630Z,101259.06
2022-08-02T06:39:53.228Z,101265.22
2022-08-02T06:42:27.235Z,101249.91
2022-08-02T06:44:58.324Z,101251.59
2022-08-02T06:47:26.944Z,101251.47
2022-08-02T06:49:56.447Z,101250.50
2022-08-02T06:52:28.775Z,101255.69
2022-08-02T06:54:59.564Z,101253.81
2022-08-02T06:57:27.864Z,101245.69
2022-08-02T06:59:55.737Z,101251.00
2022-08-02T07:02:24.061Z,101256.31
2022-08-02T07:04:52.147Z,101263.25
2022-08-02T07:07:20.097Z,101258.59
2022-08-02T07:09:56.416Z,101252.16
2022-08-02T07:12:32.385Z,101246.50
2022-08-02T07:15:00.678Z,101253.44
2022-08-02T07:17:28.942Z,101256.84
2022-08-02T07:19:57.092Z,101256.59
2022-08-02T07:22:27.197Z,101262.47
2022-08-02T07:24:56.805Z,101252.38
2022-08-02T07:27:25.010Z,101251.38
2022-08-02T07:29:54.706Z,101251.22
2022-08-02T07:32:24.681Z,101245.50
2022-08-02T07:34:54.233Z,101246.22
2022-08-02T07:37:53.498Z,101236.19
2022-08-02T07:40:20.138Z,101242.13
2022-08-02T07:42:49.654Z,101232.06
2022-08-02T07:45:19.432Z,101232.78
2022-08-02T07:47:47.468Z,101223.53
2022-08-02T07:50:16.888Z,101217.00
2022-08-02T07:52:45.744Z,101212.16
2022-08-02T07:55:15.407Z,101214.50
2022-08-02T07:57:46.390Z,101214.09
2022-08-02T08:00:17.456Z,101221.66
2022-08-02T08:02:47.666Z,101212.16
2022-08-02T08:05:15.944Z,101215.28
2022-08-02T08:07:43.939Z,101214.78
2022-08-02T08:10:12.153Z,101210.78
2022-08-02T08:12:40.028Z,101215.69
2022-08-02T08:15:08.549Z,101209.88
2022-08-02T08:17:36.456Z,101206.81
2022-08-02T08:20:06.864Z,101192.16
2022-08-02T08:22:34.858Z,101181.88
2022-08-02T08:25:04.105Z,101182.31
2022-08-02T08:27:32.372Z,101171.78
2022-08-02T08:30:00.381Z,101174.69
2022-08-02T08:32:28.231Z,101166.09
2022-08-02T08:34:56.111Z,101172.84
2022-08-02T08:37:25.262Z,101172.41
2022-08-02T08:39:56.343Z,101166.41
2022-08-02T08:42:27.238Z,101161.22
2022-08-02T08:44:56.591Z,101162.50
2022-08-02T08:47:33.610Z,101159.53
2022-08-02T08:50:05.011Z,101160.97
2022-08-02T08:52:37.671Z,101168.50
2022-08-02T08:55:09.021Z,101173.38
2022-08-02T08:57:41.295Z,101170.97
2022-08-02T09:00:10.518Z,101172.16
2022-08-02T09:02:38.490Z,101164.28
2022-08-02T09:05:08.287Z,101166.41
2022-08-02T09:07:37.558Z,101165.19
2022-08-02T09:10:33.044Z,101154.88
2022-08-02T09:13:38.664Z,101155.69
2022-08-02T09:16:11.164Z,101164.84
2022-08-02T09:18:43.886Z,101176.03
2022-08-02T09:21:12.614Z,101177.94
2022-08-02T09:23:44.434Z,101175.38
2022-08-02T09:26:14.233Z,101174.44
2022-08-02T09:28:43.631Z,101169.28
2022-08-02T09:31:13.682Z,101167.16
2022-08-02T09:33:43.474Z,101169.50
2022-08-02T09:36:13.158Z,101169.88
2022-08-02T09:38:54.677Z,101171.63
2022-08-02T09:41:24.455Z,101168.88
2022-08-02T09:44:05.542Z,101165.38
2022-08-02T09:46:37.710Z,101164.22
2022-08-02T09:49:09.430Z,101150.53
2022-08-02T09:52:43.066Z,101152.72
2022-08-02T09:56:11.601Z,101148.63
2022-08-02T09:58:57.066Z,101140.47
2022-08-02T10:01:37.241Z,101138.66
2022-08-02T10:04:07.323Z,101130.72
2022-08-02T10:06:36.447Z,101129.31
2022-08-02T10:09:04.592Z,101112.72
2022-08-02T10:11:34.876Z,101105.81
2022-08-02T10:14:05.165Z,101116.94
2022-08-02T10:16:35.813Z,101110.88
2022-08-02T10:19:04.672Z,101116.25
2022-08-02T10:21:37.370Z,101125.44
2022-08-02T10:24:08.476Z,101114.38
2022-08-02T10:26:41.053Z,101113.13
2022-08-02T10:29:09.693Z,101114.53
2022-08-02T10:31:42.830Z,101111.34
2022-08-02T10:34:13.833Z,101100.88
2022-08-02T10:36:42.831Z,101114.19
2022-08-02T10:39:11.533Z,101101.75
2022-08-02T10:41:49.244Z,101102.81
2022-08-02T10:44:25.695Z,101104.97
2022-08-02T10:47:15.147Z,101122.47
2022-08-02T10:49:50.618Z,101116.84
2022-08-02T10:52:18.831Z,101107.69
2022-08-02T10:54:50.364Z,101101.38
2022-08-02T10:57:25.086Z,101096.13
2022-08-02T10:59:58.073Z,101093.88
2022-08-02T11:02:40.892Z,101093.53
2022-08-02T11:05:16.745Z,101089.63
2022-08-02T11:07:49.571Z,101087.16
2022-08-02T11:10:36.870Z,101088.22
2022-08-02T11:13:09.083Z,101085.13
2022-08-02T11:15:51.732Z,101088.19
2022-08-02T11:18:20.211Z,101075.94
2022-08-02T11:20:48.156Z,101076.03
2022-08-02T11:23:44.379Z,101082.72
2022-08-02T11:26:45.048Z,101077.91
2022-08-02T11:29:16.048Z,101079.66
2022-08-02T11:31:45.679Z,101081.50
2022-08-02T11:34:37.078Z,101089.50
2022-08-02T11:37:02.975Z,101073.75
2022-08-02T11:39:31.045Z,101071.03
2022-08-02T11:42:00.529Z,101068.50
2022-08-02T11:44:31.652Z,101062.91
2022-08-02T11:47:00.496Z,101071.44
2022-08-02T11:49:29.283Z,101063.78
2022-08-02T11:52:01.064Z,101064.19
2022-08-02T11:54:31.759Z,101061.69
2022-08-02T11:57:21.495Z,101054.38
2022-08-02T11:59:52.494Z,101055.75
2022-08-02T12:02:22.371Z,101057.53
2022-08-02T12:04:58.201Z,101054.03
2022-08-02T12:07:34.737Z,101052.91
2022-08-02T12:10:05.654Z,101044.53
2022-08-02T12:12:33.658Z,101043.09
2022-08-02T12:15:02.930Z,101035.25
2022-08-02T12:17:48.312Z,101040.72
2022-08-02T12:20:17.353Z,101036.44
2022-08-02T12:22:45.576Z,101033.00
2022-08-02T12:25:34.344Z,101037.31
2022-08-02T12:28:18.421Z,101032.03
2022-08-02T12:30:56.230Z,101037.06
2022-08-02T12:33:25.025Z,101029.97
2022-08-02T12:35:53.601Z,101040.31
2022-08-02T12:38:21.981Z,101038.06
2022-08-02T12:40:50.677Z,101027.53
2022-08-02T12:43:21.266Z,101026.66
2022-08-02T12:45:52.713Z,101016.16
2022-08-02T12:48:37.398Z,101001.06
2022-08-02T12:51:23.562Z,101005.28
2022-08-02T12:53:59.920Z,101009.31
2022-08-02T12:56:30.617Z,101005.84
2022-08-02T12:58:59.114Z,100997.28
2022-08-02T13:01:29.081Z,100999.63
2022-08-02T13:04:07.571Z,101005.56
2022-08-02T13:06:44.059Z,100989.19
2022-08-02T13:09:17.768Z,100988.75
2022-08-02T13:11:46.319Z,100982.69
2022-08-02T13:14:14.876Z,100989.91
2022-08-02T13:16:44.630Z,100984.13
2022-08-02T13:19:15.527Z,100988.00
2022-08-02T13:22:01.383Z,100984.34
2022-08-02T13:24:38.788Z,100976.06
2022-08-02T13:27:09.967Z,100978.84
2022-08-02T13:29:38.451Z,100978.41
2022-08-02T13:32:06.672Z,100977.94
2022-08-02T13:34:36.372Z,100976.31
2022-08-02T13:37:05.213Z,100968.13
2022-08-02T13:39:33.161Z,100966.00
2022-08-02T13:42:01.026Z,100951.06
2022-08-02T13:44:31.134Z,100963.09
2022-08-02T13:46:59.073Z,100964.03
2022-08-02T13:49:50.062Z,100960.44
2022-08-02T13:52:16.685Z,100962.00
2022-08-02T13:54:45.942Z,100950.72
2022-08-02T13:57:13.880Z,100955.38
2022-08-02T13:59:56.154Z,100956.78
2022-08-02T14:02:25.921Z,100948.44
2022-08-02T14:04:53.741Z,100943.94
2022-08-02T14:07:22.980Z,100942.44
2022-08-02T14:09:50.805Z,100945.19
2022-08-02T14:12:18.812Z,100932.53
2022-08-02T14:14:46.671Z,100930.91
2022-08-02T14:17:14.591Z,100934.72
2022-08-02T14:19:42.405Z,100930.09
2022-08-02T14:22:21.179Z,100934.63
2022-08-02T14:24:50.734Z,100936.06
2022-08-02T14:27:18.644Z,100926.34
2022-08-02T14:29:48.217Z,100926.34
2022-08-02T14:32:16.546Z,100927.16
2022-08-02T14:34:45.112Z,100927.78
2022-08-02T14:37:13.019Z,100925.81
2022-08-02T14:40:00.600Z,100926.56
2022-08-02T14:42:30.410Z,100919.84
2022-08-02T14:44:58.315Z,100921.53
2022-08-02T14:47:26.172Z,100926.53
2022-08-02T14:49:54.211Z,100926.53
2022-08-02T14:52:22.128Z,100913.34
2022-08-02T14:54:50.193Z,100919.03
2022-08-02T14:57:18.118Z,100916.78
2022-08-02T14:59:47.333Z,100917.34
2022-08-02T15:02:15.748Z,100911.13
2022-08-02T15:04:44.128Z,100902.38
2022-08-02T15:07:13.226Z,100912.91
2022-08-02T15:09:41.358Z,100907.81
2022-08-02T15:12:10.602Z,100909.56
2022-08-02T15:14:39.385Z,100899.09
2022-08-02T15:17:09.813Z,100899.50
2022-08-02T15:19:56.570Z,100904.44
2022-08-02T15:22:25.722Z,100905.56
2022-08-02T15:24:54.394Z,100894.63
2022-08-02T15:27:22.208Z,100899.97
2022-08-02T15:29:50.138Z,100892.59
2022-08-02T15:32:19.889Z,100900.44
2022-08-02T15:34:48.741Z,100893.94
2022-08-02T15:37:16.914Z,100899.00
2022-08-02T15:39:44.967Z,100889.06
2022-08-02T15:42:13.581Z,100898.13
2022-08-02T15:44:41.690Z,100898.31
2022-08-02T15:47:09.573Z,100895.69
2022-08-02T15:49:41.610Z,100896.16
2022-08-02T15:52:11.201Z,100895.22
2022-08-02T15:54:39.359Z,100894.13
2022-08-02T15:57:07.887Z,100888.28
2022-08-02T15:59:35.734Z,100885.44
2022-08-02T16:02:04.088Z,100880.66
2022-08-02T16:04:32.039Z,100893.22
2022-08-02T16:07:01.562Z,100883.13
2022-08-02T16:09:30.101Z,100881.03
2022-08-02T16:11:58.354Z,100881.81
2022-08-02T16:14:26.253Z,100872.25
2022-08-02T16:16:54.339Z,100875.13
2022-08-02T16:19:45.873Z,100876.13
2022-08-02T16:22:13.687Z,100870.03
2022-08-02T16:24:41.705Z,100869.06
2022-08-02T16:27:09.585Z,100869.56
2022-08-02T16:29:37.693Z,100872.56
2022-08-02T16:32:06.819Z,100871.09
2022-08-02T16:34:56.704Z,100871.88
2022-08-02T16:37:24.279Z,100870.28
2022-08-02T16:39:52.214Z,100866.97
2022-08-02T16:42:25.337Z,100866.25
2022-08-02T16:44:54.708Z,100857.19
2022-08-02T16:47:42.760Z,100856.81
2022-08-02T16:50:11.317Z,100857.09
2022-08-02T16:52:40.758Z,100859.06
2022-08-02T16:55:11.154Z,100856.81
2022-08-02T16:57:42.808Z,100852.69
2022-08-02T17:00:15.616Z,100848.56
2022-08-02T17:02:44.226Z,100850.47
2022-08-02T17:05:15.379Z,100843.72
2022-08-02T17:08:08.096Z,100848.81
2022-08-02T17:10:34.379Z,100850.41
2022-08-02T17:13:11.186Z,100846.75
2022-08-02T17:16:01.290Z,100852.09
2022-08-02T17:18:29.110Z,100849.94
2022-08-02T17:20:58.022Z,100856.00
2022-08-02T17:24:04.463Z,100854.59
2022-08-02T17:26:15.310Z,100862.41
2022-08-02T17:29:13.906Z,100861.13
2022-08-02T17:31:42.381Z,100856.34
2022-08-02T17:34:11.080Z,100859.66
2022-08-02T17:36:39.225Z,100860.25
2022-08-02T17:39:08.590Z,100867.03
2022-08-02T17:44:37.012Z,100864.56
2022-08-02T17:47:08.754Z,100858.81
2022-08-02T17:49:44.394Z,100859.28
2022-08-02T17:52:52.174Z,100861.69
2022-08-02T17:55:07.038Z,100864.94
2022-08-02T17:57:56.116Z,100865.50
2022-08-02T18:00:24.687Z,100878.72
2022-08-02T18:02:55.459Z,100869.25
2022-08-02T18:05:39.428Z,100868.06
2022-08-02T18:08:09.622Z,100868.59
2022-08-02T18:10:39.382Z,100861.94
2022-08-02T18:13:07.650Z,100872.50
2022-08-02T18:15:35.646Z,100874.09
2022-08-02T18:18:04.019Z,100864.72
2022-08-02T18:20:31.982Z,100871.59
2022-08-02T18:23:00.322Z,100866.66
2022-08-02T18:25:36.500Z,100864.47
2022-08-02T18:28:07.290Z,100871.44
2022-08-02T18:30:35.373Z,100872.69
2022-08-02T18:33:58.316Z,100878.59
2022-08-02T18:35:51.671Z,100876.44
2022-08-02T18:38:23.538Z,100876.09
2022-08-02T18:40:52.152Z,100878.47
2022-08-02T18:43:25.293Z,100878.94
2022-08-02T18:46:05.801Z,100884.03
2022-08-02T18:48:44.160Z,100883.78
2022-08-02T18:51:15.353Z,100881.53
2022-08-02T18:53:43.802Z,100893.22
2022-08-02T18:56:19.904Z,100880.09
2022-08-02T18:58:55.228Z,100895.03
2022-08-02T19:01:32.706Z,100888.34
2022-08-02T19:04:04.222Z,100892.63
2022-08-02T19:06:32.710Z,100892.31
2022-08-02T19:09:11.026Z,100894.56
2022-08-02T19:11:41.443Z,100899.69
2022-08-02T19:14:24.458Z,100903.88
2022-08-02T19:16:56.612Z,100901.75
2022-08-02T19:19:29.045Z,100906.72
2022-08-02T19:22:15.851Z,100903.75
2022-08-02T19:24:47.223Z,100895.28
2022-08-02T19:27:20.704Z,100903.00
2022-08-02T19:29:55.539Z,100905.31
2022-08-02T19:32:40.218Z,100896.91
2022-08-02T19:35:19.370Z,100900.03
2022-08-02T19:37:59.128Z,100900.50
2022-08-02T19:40:28.809Z,100891.06
2022-08-02T19:44:25.693Z,100883.50
2022-08-02T19:45:50.576Z,100892.28
2022-08-02T19:48:24.159Z,100887.38
2022-08-02T19:50:59.531Z,100900.56
2022-08-02T19:53:47.122Z,100887.47
2022-08-02T19:56:20.898Z,100893.41
2022-08-02T19:58:51.519Z,100891.16
2022-08-02T20:01:28.241Z,100890.75
2022-08-02T20:04:06.953Z,100902.13
2022-08-02T20:06:34.885Z,100906.16
2022-08-02T20:09:03.916Z,100902.03
2022-08-02T20:11:34.851Z,100896.06
2022-08-02T20:14:04.714Z,100898.34
2022-08-02T20:16:34.402Z,100895.06
2022-08-02T20:19:02.789Z,100891.84
2022-08-02T20:21:36.366Z,100894.06
2022-08-02T20:24:06.829Z,100904.41
2022-08-02T20:26:35.190Z,100898.50
2022-08-02T20:29:04.140Z,100901.63
2022-08-02T20:31:34.527Z,100900.25
2022-08-02T20:34:02.804Z,100903.31
2022-08-02T20:36:30.790Z,100899.97
2022-08-02T20:38:58.855Z,100900.38
2022-08-02T20:41:36.809Z,100901.53
2022-08-02T20:44:15.927Z,100904.63
2022-08-02T20:47:00.481Z,100913.97
2022-08-02T20:49:40.325Z,100910.69
2022-08-02T20:52:23.620Z,100929.16
2022-08-02T20:54:52.940Z,100921.41
2022-08-02T20:57:48.430Z,100918.13
2022-08-02T21:00:10.905Z,100920.31
2022-08-02T21:02:41.280Z,100917.94
2022-08-02T21:05:17.168Z,100920.03
2022-08-02T21:07:47.897Z,100913.25
2022-08-02T21:13:18.842Z,100920.13
2022-08-02T21:15:51.400Z,100915.06
2022-08-02T21:18:25.271Z,100919.78
2022-08-02T21:20:58.756Z,100920.06
2022-08-02T21:23:29.390Z,100922.16
2022-08-02T21:25:58.135Z,100924.09
2022-08-02T21:28:34.967Z,100920.78
2022-08-02T21:31:14.961Z,100921.88
2022-08-02T21:33:57.075Z,100916.72
2022-08-02T21:36:30.246Z,100917.94
2022-08-02T21:39:04.715Z,100919.97
2022-08-02T21:41:39.498Z,100922.94
2022-08-02T21:47:02.822Z,100926.97
2022-08-02T21:50:08.722Z,100925.31
2022-08-02T21:52:20.620Z,100925.63
2022-08-02T21:54:55.879Z,100925.75
2022-08-02T21:57:25.151Z,100926.88
2022-08-02T22:00:02.777Z,100924.31
2022-08-02T22:02:36.979Z,100927.19
2022-08-02T22:05:07.546Z,100930.03
2022-08-02T22:07:45.764Z,100933.81
2022-08-02T22:10:14.240Z,100941.16
2022-08-02T22:12:43.685Z,100935.00
2022-08-02T22:15:13.467Z,100943.22
2022-08-02T22:17:53.150Z,100945.22
2022-08-02T22:20:23.482Z,100950.00
2022-08-02T22:22:52.523Z,100944.69
2022-08-02T22:25:36.342Z,100950.13
2022-08-02T22:28:38.566Z,100947.53
2022-08-02T22:30:54.860Z,100951.25
2022-08-02T22:34:01.069Z,100949.53
2022-08-02T22:36:32.581Z,100956.00
2022-08-02T22:39:01.929Z,100942.75
2022-08-02T22:42:06.002Z,100951.91
2022-08-02T22:44:18.916Z,100954.88
2022-08-02T22:46:50.127Z,100955.94
2022-08-02T22:49:38.684Z,100958.75
2022-08-02T22:52:10.783Z,100948.03
2022-08-02T22:54:39.383Z,100956.19
2022-08-02T22:57:11.229Z,100957.22
2022-08-02T22:58:39.643Z,100867.59
2022-08-02T22:59:01.946Z,100916.25
2022-08-02T22:59:03.345Z,100920.50
2022-08-02T22:59:40.770Z,100958.22
2022-08-02T23:02:09.468Z,100953.75
2022-08-02T23:04:38.090Z,100953.91
2022-08-02T23:07:06.221Z,100951.41
2022-08-02T23:09:35.679Z,100954.31
2022-08-02T23:12:03.886Z,100952.53
2022-08-02T23:14:32.377Z,100958.00
2022-08-02T23:17:18.036Z,100962.44
2022-08-02T23:19:51.894Z,100958.81
2022-08-02T23:22:20.652Z,100955.19
2022-08-02T23:24:50.460Z,100951.63
2022-08-02T23:27:18.980Z,100946.22
2022-08-02T23:29:49.535Z,100944.34
2022-08-02T23:32:17.934Z,100942.47
2022-08-02T23:34:46.952Z,100943.19
2022-08-02T23:37:15.039Z,100935.97
2022-08-02T23:39:43.114Z,100925.25
2022-08-02T23:42:12.524Z,100936.94
2022-08-02T23:44:40.768Z,100925.25
2022-08-02T23:47:11.163Z,100926.94
2022-08-02T23:49:39.365Z,100926.88
2022-08-02T23:52:07.524Z,100929.47
2022-08-02T23:54:35.622Z,100924.03
2022-08-02T23:57:20.688Z,100923.00
2022-08-02T23:59:51.850Z,100925.59
